sensor_id;sensor_type;location;lat;lon;timestamp;pressure;altitude;pressure_sealevel;temperature;humidity
29385;BME280;16367;48.736;9.218;2023-10-19T00:01:08;-23492.59;;;10.26;100.00
29385;BME280;16367;48.736;9.218;2023-10-19T00:03:11;-23492.75;;;10.26;100.00
29385;BME280;16367;48.736;9.218;2023-10-19T00:05:14;-23496.72;;;10.39;100.00
29385;BME280;16367;48.736;9.218;2023-10-19T00:07:17;-23495.59;;;10.35;100.00
29385;BME280;16367;48.736;9.218;2023-10-19T00:09:21;-23498.75;;;10.45;100.00
29385;BME280;16367;48.736;9.218;2023-10-19T00:11:23;-23496.38;;;10.38;100.00
29385;BME280;16367;48.736;9.218;2023-10-19T00:13:27;-23496.38;;;10.38;100.00
29385;BME280;16367;48.736;9.218;2023-10-19T00:15:31;-23499.41;;;10.47;100.00
29385;BME280;16367;48.736;9.218;2023-10-19T00:17:35;-23499.88;;;10.49;100.00
29385;BME280;16367;48.736;9.218;2023-10-19T00:19:39;-23500.19;;;10.50;100.00
29385;BME280;16367;48.736;9.218;2023-10-19T00:21:44;-23503.34;;;10.60;100.00
29385;BME280;16367;48.736;9.218;2023-10-19T00:23:54;-23506.38;;;10.70;100.00
29385;BME280;16367;48.736;9.218;2023-10-19T00:26:00;-23505.91;;;10.68;100.00
29385;BME280;16367;48.736;9.218;2023-10-19T00:28:07;-23506.53;;;10.70;100.00
29385;BME280;16367;48.736;9.218;2023-10-19T00:30:10;-23507.16;;;10.72;100.00
29385;BME280;16367;48.736;9.218;2023-10-19T00:32:13;-23509.84;;;10.81;100.00
29385;BME280;16367;48.736;9.218;2023-10-19T00:34:16;-23510.00;;;10.81;100.00
29385;BME280;16367;48.736;9.218;2023-10-19T00:36:20;-23510.97;;;10.84;100.00
29385;BME280;16367;48.736;9.218;2023-10-19T00:38:23;-23511.44;;;10.86;100.00
29385;BME280;16367;48.736;9.218;2023-10-19T00:40:41;-23513.19;;;10.91;100.00
29385;BME280;16367;48.736;9.218;2023-10-19T00:42:50;-23513.66;;;10.93;100.00
29385;BME280;16367;48.736;9.218;2023-10-19T00:44:56;-23516.97;;;11.03;100.00
29385;BME280;16367;48.736;9.218;2023-10-19T00:47:03;-23518.56;;;11.08;100.00
29385;BME280;16367;48.736;9.218;2023-10-19T00:49:13;-23520.78;;;11.15;100.00
29385;BME280;16367;48.736;9.218;2023-10-19T00:51:20;-23521.72;;;11.18;100.00
29385;BME280;16367;48.736;9.218;2023-10-19T00:53:31;-23523.31;;;11.23;100.00
29385;BME280;16367;48.736;9.218;2023-10-19T00:55:34;-23524.41;;;11.27;100.00
29385;BME280;16367;48.736;9.218;2023-10-19T00:57:40;-23524.91;;;11.29;100.00
29385;BME280;16367;48.736;9.218;2023-10-19T00:59:46;-23520.78;;;11.15;100.00
29385;BME280;16367;48.736;9.218;2023-10-19T01:01:52;-23524.56;;;11.27;100.00
29385;BME280;16367;48.736;9.218;2023-10-19T01:03:56;-23526.16;;;11.33;100.00
29385;BME280;16367;48.736;9.218;2023-10-19T01:06:00;-23528.38;;;11.40;100.00
29385;BME280;16367;48.736;9.218;2023-10-19T01:08:06;-23527.28;;;11.36;100.00
29385;BME280;16367;48.736;9.218;2023-10-19T01:10:21;-23529.34;;;11.43;100.00
29385;BME280;16367;48.736;9.218;2023-10-19T01:12:26;-23533.13;;;11.55;100.00
29385;BME280;16367;48.736;9.218;2023-10-19T01:14:35;-23538.19;;;11.71;100.00
29385;BME280;16367;48.736;9.218;2023-10-19T01:16:40;-23537.25;;;11.68;100.00
29385;BME280;16367;48.736;9.218;2023-10-19T01:18:43;-23535.34;;;11.62;100.00
29385;BME280;16367;48.736;9.218;2023-10-19T01:20:47;-23535.81;;;11.63;100.00
29385;BME280;16367;48.736;9.218;2023-10-19T01:22:56;-23539.16;;;11.74;100.00
29385;BME280;16367;48.736;9.218;2023-10-19T01:25:12;-23537.72;;;11.69;100.00
29385;BME280;16367;48.736;9.218;2023-10-19T01:27:25;-23535.50;;;11.62;100.00
29385;BME280;16367;48.736;9.218;2023-10-19T01:29:28;-23530.28;;;11.46;100.00
29385;BME280;16367;48.736;9.218;2023-10-19T01:31:31;-23532.19;;;11.52;100.00
29385;BME280;16367;48.736;9.218;2023-10-19T01:33:40;-23534.06;;;11.58;100.00
29385;BME280;16367;48.736;9.218;2023-10-19T01:35:43;-23534.38;;;11.59;100.00
29385;BME280;16367;48.736;9.218;2023-10-19T01:38:04;-23540.41;;;11.78;100.00
29385;BME280;16367;48.736;9.218;2023-10-19T01:40:08;-23593.53;;;13.47;100.00
29385;BME280;16367;48.736;9.218;2023-10-19T01:42:10;-23587.22;;;13.27;100.00
29385;BME280;16367;48.736;9.218;2023-10-19T01:44:14;-23587.06;;;13.26;100.00
29385;BME280;16367;48.736;9.218;2023-10-19T01:46:17;-23588.63;;;13.31;100.00
29385;BME280;16367;48.736;9.218;2023-10-19T01:48:25;-23588.16;;;13.30;100.00
29385;BME280;16367;48.736;9.218;2023-10-19T01:50:37;-23587.84;;;13.29;100.00
29385;BME280;16367;48.736;9.218;2023-10-19T01:52:40;-23594.16;;;13.49;100.00
29385;BME280;16367;48.736;9.218;2023-10-19T01:54:44;-23582.16;;;13.11;100.00
29385;BME280;16367;48.736;9.218;2023-10-19T01:56:46;-23577.41;;;12.96;100.00
29385;BME280;16367;48.736;9.218;2023-10-19T01:58:49;-23572.34;;;12.80;100.00
29385;BME280;16367;48.736;9.218;2023-10-19T02:00:53;-23564.28;;;12.54;100.00
29385;BME280;16367;48.736;9.218;2023-10-19T02:02:57;-23562.88;;;12.49;100.00
29385;BME280;16367;48.736;9.218;2023-10-19T02:05:02;-23562.25;;;12.47;100.00
29385;BME280;16367;48.736;9.218;2023-10-19T02:07:15;-23561.13;;;12.44;100.00
29385;BME280;16367;48.736;9.218;2023-10-19T02:09:20;-23563.81;;;12.52;100.00
29385;BME280;16367;48.736;9.218;2023-10-19T02:11:27;-23565.41;;;12.57;100.00
29385;BME280;16367;48.736;9.218;2023-10-19T02:13:30;-23567.63;;;12.64;100.00
29385;BME280;16367;48.736;9.218;2023-10-19T02:15:33;-23570.63;;;12.74;100.00
29385;BME280;16367;48.736;9.218;2023-10-19T02:17:37;-23563.97;;;12.53;100.00
29385;BME280;16367;48.736;9.218;2023-10-19T02:19:39;-23563.97;;;12.53;100.00
29385;BME280;16367;48.736;9.218;2023-10-19T02:21:42;-23568.25;;;12.66;100.00
29385;BME280;16367;48.736;9.218;2023-10-19T02:23:44;-23565.25;;;12.57;100.00
29385;BME280;16367;48.736;9.218;2023-10-19T02:25:46;-23563.03;;;12.50;100.00
29385;BME280;16367;48.736;9.218;2023-10-19T02:27:49;-23564.47;;;12.54;100.00
29385;BME280;16367;48.736;9.218;2023-10-19T02:29:53;-23563.97;;;12.53;100.00
29385;BME280;16367;48.736;9.218;2023-10-19T02:31:55;-23565.41;;;12.57;100.00
29385;BME280;16367;48.736;9.218;2023-10-19T02:33:59;-23569.34;;;12.70;100.00
29385;BME280;16367;48.736;9.218;2023-10-19T02:36:00;-23567.94;;;12.65;100.00
29385;BME280;16367;48.736;9.218;2023-10-19T02:38:05;-23564.94;;;12.56;100.00
29385;BME280;16367;48.736;9.218;2023-10-19T02:40:07;-23563.97;;;12.53;100.00
29385;BME280;16367;48.736;9.218;2023-10-19T02:42:20;-23562.88;;;12.49;100.00
29385;BME280;16367;48.736;9.218;2023-10-19T02:44:25;-23560.34;;;12.41;100.00
29385;BME280;16367;48.736;9.218;2023-10-19T02:46:27;-23561.59;;;12.45;100.00
29385;BME280;16367;48.736;9.218;2023-10-19T02:48:30;-23567.16;;;12.63;100.00
29385;BME280;16367;48.736;9.218;2023-10-19T02:50:32;-23577.25;;;12.95;100.00
29385;BME280;16367;48.736;9.218;2023-10-19T02:52:35;-23579.63;;;13.03;100.00
29385;BME280;16367;48.736;9.218;2023-10-19T02:54:37;-23581.22;;;13.08;100.00
29385;BME280;16367;48.736;9.218;2023-10-19T02:56:41;-23581.22;;;13.08;100.00
29385;BME280;16367;48.736;9.218;2023-10-19T02:58:46;-23578.06;;;12.98;100.00
29385;BME280;16367;48.736;9.218;2023-10-19T03:00:52;-23577.25;;;12.95;100.00
29385;BME280;16367;48.736;9.218;2023-10-19T03:02:54;-23577.25;;;12.95;100.00
29385;BME280;16367;48.736;9.218;2023-10-19T03:04:57;-23576.78;;;12.94;100.00
29385;BME280;16367;48.736;9.218;2023-10-19T03:06:59;-23575.22;;;12.89;100.00
29385;BME280;16367;48.736;9.218;2023-10-19T03:09:04;-23574.09;;;12.85;100.00
29385;BME280;16367;48.736;9.218;2023-10-19T03:11:14;-23580.59;;;13.06;100.00
29385;BME280;16367;48.736;9.218;2023-10-19T03:13:18;-23576.63;;;12.93;100.00
29385;BME280;16367;48.736;9.218;2023-10-19T03:15:20;-23578.38;;;12.99;100.00
29385;BME280;16367;48.736;9.218;2023-10-19T03:17:25;-23576.16;;;12.92;100.00
29385;BME280;16367;48.736;9.218;2023-10-19T03:19:27;-23577.25;;;12.95;100.00
29385;BME280;16367;48.736;9.218;2023-10-19T03:21:30;-23576.31;;;12.92;100.00
29385;BME280;16367;48.736;9.218;2023-10-19T03:23:35;-23577.56;;;12.96;100.00
29385;BME280;16367;48.736;9.218;2023-10-19T03:25:39;-23580.91;;;13.07;100.00
29385;BME280;16367;48.736;9.218;2023-10-19T03:28:18;-23580.91;;;13.07;100.00
29385;BME280;16367;48.736;9.218;2023-10-19T03:30:21;-23578.06;;;12.98;100.00
29385;BME280;16367;48.736;9.218;2023-10-19T03:32:28;-23574.41;;;12.86;100.00
29385;BME280;16367;48.736;9.218;2023-10-19T03:34:34;-23571.09;;;12.76;100.00
29385;BME280;16367;48.736;9.218;2023-10-19T03:36:40;-23568.41;;;12.67;100.00
29385;BME280;16367;48.736;9.218;2023-10-19T03:38:43;-23566.50;;;12.61;100.00
29385;BME280;16367;48.736;9.218;2023-10-19T03:40:45;-23565.88;;;12.59;100.00
29385;BME280;16367;48.736;9.218;2023-10-19T03:42:53;-23565.88;;;12.59;100.00
29385;BME280;16367;48.736;9.218;2023-10-19T03:44:57;-23567.63;;;12.64;100.00
29385;BME280;16367;48.736;9.218;2023-10-19T03:47:01;-23573.94;;;12.85;100.00
29385;BME280;16367;48.736;9.218;2023-10-19T03:49:08;-23567.31;;;12.63;100.00
29385;BME280;16367;48.736;9.218;2023-10-19T03:51:14;-23565.41;;;12.57;100.00
29385;BME280;16367;48.736;9.218;2023-10-19T03:53:19;-23565.72;;;12.58;100.00
29385;BME280;16367;48.736;9.218;2023-10-19T03:55:22;-23566.97;;;12.62;100.00
29385;BME280;16367;48.736;9.218;2023-10-19T03:57:25;-23563.81;;;12.52;100.00
29385;BME280;16367;48.736;9.218;2023-10-19T03:59:31;-23565.41;;;12.57;100.00
29385;BME280;16367;48.736;9.218;2023-10-19T04:01:35;-23562.56;;;12.48;100.00
29385;BME280;16367;48.736;9.218;2023-10-19T04:03:39;-23561.28;;;12.44;100.00
29385;BME280;16367;48.736;9.218;2023-10-19T04:05:44;-23560.34;;;12.41;100.00
29385;BME280;16367;48.736;9.218;2023-10-19T04:07:49;-23560.66;;;12.42;100.00
29385;BME280;16367;48.736;9.218;2023-10-19T04:09:56;-23559.72;;;12.39;100.00
29385;BME280;16367;48.736;9.218;2023-10-19T04:12:01;-23560.03;;;12.40;100.00
29385;BME280;16367;48.736;9.218;2023-10-19T04:14:05;-23557.81;;;12.33;100.00
29385;BME280;16367;48.736;9.218;2023-10-19T04:16:10;-23558.59;;;12.36;100.00
29385;BME280;16367;48.736;9.218;2023-10-19T04:18:13;-23559.22;;;12.38;100.00
29385;BME280;16367;48.736;9.218;2023-10-19T04:20:18;-23559.72;;;12.39;100.00
29385;BME280;16367;48.736;9.218;2023-10-19T04:22:33;-23557.50;;;12.32;100.00
29385;BME280;16367;48.736;9.218;2023-10-19T04:24:36;-23559.41;;;12.38;100.00
29385;BME280;16367;48.736;9.218;2023-10-19T04:26:39;-23561.28;;;12.44;100.00
29385;BME280;16367;48.736;9.218;2023-10-19T04:28:44;-23568.09;;;12.66;100.00
29385;BME280;16367;48.736;9.218;2023-10-19T04:30:52;-23567.63;;;12.64;100.00
29385;BME280;16367;48.736;9.218;2023-10-19T04:32:54;-23567.16;;;12.63;100.00
29385;BME280;16367;48.736;9.218;2023-10-19T04:35:00;-23568.25;;;12.66;100.00
29385;BME280;16367;48.736;9.218;2023-10-19T04:37:04;-23568.56;;;12.67;100.00
29385;BME280;16367;48.736;9.218;2023-10-19T04:39:09;-23565.72;;;12.58;100.00
29385;BME280;16367;48.736;9.218;2023-10-19T04:41:15;-23567.63;;;12.64;100.00
29385;BME280;16367;48.736;9.218;2023-10-19T04:43:17;-23566.97;;;12.62;100.00
29385;BME280;16367;48.736;9.218;2023-10-19T04:45:19;-23570.78;;;12.74;100.00
29385;BME280;16367;48.736;9.218;2023-10-19T04:47:22;-23566.34;;;12.60;100.00
29385;BME280;16367;48.736;9.218;2023-10-19T04:49:27;-23568.09;;;12.66;100.00
29385;BME280;16367;48.736;9.218;2023-10-19T04:51:30;-23568.88;;;12.68;100.00
29385;BME280;16367;48.736;9.218;2023-10-19T04:53:35;-23567.31;;;12.63;100.00
29385;BME280;16367;48.736;9.218;2023-10-19T04:55:38;-23567.78;;;12.65;100.00
29385;BME280;16367;48.736;9.218;2023-10-19T04:57:42;-23563.50;;;12.51;100.00
29385;BME280;16367;48.736;9.218;2023-10-19T04:59:44;-23563.50;;;12.51;100.00
29385;BME280;16367;48.736;9.218;2023-10-19T05:01:47;-23563.34;;;12.51;100.00
29385;BME280;16367;48.736;9.218;2023-10-19T05:03:51;-23563.50;;;12.51;100.00
29385;BME280;16367;48.736;9.218;2023-10-19T05:05:55;-23562.72;;;12.49;100.00
29385;BME280;16367;48.736;9.218;2023-10-19T05:07:57;-23559.56;;;12.39;100.00
29385;BME280;16367;48.736;9.218;2023-10-19T05:10:05;-23559.56;;;12.39;100.00
29385;BME280;16367;48.736;9.218;2023-10-19T05:12:12;-23563.81;;;12.52;100.00
29385;BME280;16367;48.736;9.218;2023-10-19T05:14:15;-23564.94;;;12.56;100.00
29385;BME280;16367;48.736;9.218;2023-10-19T05:16:18;-23566.97;;;12.62;100.00
29385;BME280;16367;48.736;9.218;2023-10-19T05:18:22;-23565.25;;;12.57;100.00
29385;BME280;16367;48.736;9.218;2023-10-19T05:20:25;-23565.72;;;12.58;100.00
29385;BME280;16367;48.736;9.218;2023-10-19T05:22:28;-23567.78;;;12.65;100.00
29385;BME280;16367;48.736;9.218;2023-10-19T05:24:34;-23566.34;;;12.60;100.00
29385;BME280;16367;48.736;9.218;2023-10-19T05:26:38;-23566.03;;;12.59;100.00
29385;BME280;16367;48.736;9.218;2023-10-19T05:28:42;-23565.09;;;12.56;100.00
29385;BME280;16367;48.736;9.218;2023-10-19T05:30:45;-23562.72;;;12.49;100.00
29385;BME280;16367;48.736;9.218;2023-10-19T05:32:46;-23561.44;;;12.45;100.00
29385;BME280;16367;48.736;9.218;2023-10-19T05:34:51;-23560.81;;;12.43;100.00
29385;BME280;16367;48.736;9.218;2023-10-19T05:36:54;-23558.44;;;12.35;100.00
29385;BME280;16367;48.736;9.218;2023-10-19T05:39:00;-23563.81;;;12.52;100.00
29385;BME280;16367;48.736;9.218;2023-10-19T05:41:03;-23562.56;;;12.48;100.00
29385;BME280;16367;48.736;9.218;2023-10-19T05:43:06;-23561.94;;;12.46;100.00
29385;BME280;16367;48.736;9.218;2023-10-19T05:45:10;-23561.78;;;12.46;100.00
29385;BME280;16367;48.736;9.218;2023-10-19T05:47:15;-23560.34;;;12.41;100.00
29385;BME280;16367;48.736;9.218;2023-10-19T05:49:17;-23562.72;;;12.49;100.00
29385;BME280;16367;48.736;9.218;2023-10-19T05:51:21;-23560.03;;;12.40;100.00
29385;BME280;16367;48.736;9.218;2023-10-19T05:53:24;-23562.41;;;12.48;100.00
29385;BME280;16367;48.736;9.218;2023-10-19T05:55:27;-23564.13;;;12.53;100.00
29385;BME280;16367;48.736;9.218;2023-10-19T05:57:30;-23564.13;;;12.53;100.00
29385;BME280;16367;48.736;9.218;2023-10-19T05:59:33;-23564.47;;;12.54;100.00
29385;BME280;16367;48.736;9.218;2023-10-19T06:01:38;-23568.88;;;12.68;100.00
29385;BME280;16367;48.736;9.218;2023-10-19T06:03:41;-23568.88;;;12.68;100.00
29385;BME280;16367;48.736;9.218;2023-10-19T06:05:44;-23569.84;;;12.71;100.00
29385;BME280;16367;48.736;9.218;2023-10-19T06:07:48;-23571.09;;;12.76;100.00
29385;BME280;16367;48.736;9.218;2023-10-19T06:09:51;-23575.03;;;12.88;100.00
29385;BME280;16367;48.736;9.218;2023-10-19T06:11:54;-23571.41;;;12.77;100.00
29385;BME280;16367;48.736;9.218;2023-10-19T06:13:57;-23575.22;;;12.89;100.00
29385;BME280;16367;48.736;9.218;2023-10-19T06:15:59;-23572.53;;;12.80;100.00
29385;BME280;16367;48.736;9.218;2023-10-19T06:18:04;-23574.25;;;12.86;100.00
29385;BME280;16367;48.736;9.218;2023-10-19T06:20:08;-23574.25;;;12.86;100.00
29385;BME280;16367;48.736;9.218;2023-10-19T06:22:21;-23573.31;;;12.83;100.00
29385;BME280;16367;48.736;9.218;2023-10-19T06:24:24;-23571.25;;;12.76;100.00
29385;BME280;16367;48.736;9.218;2023-10-19T06:26:27;-23574.88;;;12.88;100.00
29385;BME280;16367;48.736;9.218;2023-10-19T06:28:30;-23572.69;;;12.81;100.00
29385;BME280;16367;48.736;9.218;2023-10-19T06:30:35;-23573.47;;;12.83;100.00
29385;BME280;16367;48.736;9.218;2023-10-19T06:32:38;-23574.09;;;12.85;100.00
29385;BME280;16367;48.736;9.218;2023-10-19T06:34:41;-23571.25;;;12.76;100.00
29385;BME280;16367;48.736;9.218;2023-10-19T06:36:44;-23569.84;;;12.71;100.00
29385;BME280;16367;48.736;9.218;2023-10-19T06:38:47;-23569.03;;;12.69;100.00
29385;BME280;16367;48.736;9.218;2023-10-19T06:40:52;-23570.63;;;12.74;100.00
29385;BME280;16367;48.736;9.218;2023-10-19T06:42:56;-23571.72;;;12.78;100.00
29385;BME280;16367;48.736;9.218;2023-10-19T06:44:58;-23573.63;;;12.84;100.00
29385;BME280;16367;48.736;9.218;2023-10-19T06:47:00;-23573.47;;;12.83;100.00
29385;BME280;16367;48.736;9.218;2023-10-19T06:49:03;-23577.09;;;12.95;100.00
29385;BME280;16367;48.736;9.218;2023-10-19T06:51:08;-23574.09;;;12.85;100.00
29385;BME280;16367;48.736;9.218;2023-10-19T06:53:10;-23578.06;;;12.98;100.00
29385;BME280;16367;48.736;9.218;2023-10-19T06:55:14;-23580.91;;;13.07;100.00
29385;BME280;16367;48.736;9.218;2023-10-19T06:57:18;-23579.00;;;13.01;100.00
29385;BME280;16367;48.736;9.218;2023-10-19T06:59:21;-23580.28;;;13.05;100.00
29385;BME280;16367;48.736;9.218;2023-10-19T07:01:25;-23579.31;;;13.02;100.00
29385;BME280;16367;48.736;9.218;2023-10-19T07:03:31;-23584.84;;;13.19;100.00
29385;BME280;16367;48.736;9.218;2023-10-19T07:05:33;-23590.22;;;13.36;100.00
29385;BME280;16367;48.736;9.218;2023-10-19T07:07:38;-23588.00;;;13.29;100.00
29385;BME280;16367;48.736;9.218;2023-10-19T07:09:41;-23588.81;;;13.32;100.00
29385;BME280;16367;48.736;9.218;2023-10-19T07:11:44;-23581.69;;;13.09;100.00
29385;BME280;16367;48.736;9.218;2023-10-19T07:13:47;-23575.22;;;12.89;100.00
29385;BME280;16367;48.736;9.218;2023-10-19T07:15:50;-23579.63;;;13.03;100.00
29385;BME280;16367;48.736;9.218;2023-10-19T07:17:53;-23574.72;;;12.87;100.00
29385;BME280;16367;48.736;9.218;2023-10-19T07:19:56;-23572.53;;;12.80;100.00
29385;BME280;16367;48.736;9.218;2023-10-19T07:21:58;-23573.16;;;12.82;100.00
29385;BME280;16367;48.736;9.218;2023-10-19T07:24:07;-23569.03;;;12.69;100.00
29385;BME280;16367;48.736;9.218;2023-10-19T07:26:13;-23577.25;;;12.95;100.00
29385;BME280;16367;48.736;9.218;2023-10-19T07:28:17;-23578.38;;;12.99;100.00
29385;BME280;16367;48.736;9.218;2023-10-19T07:30:21;-23571.09;;;12.76;100.00
29385;BME280;16367;48.736;9.218;2023-10-19T07:32:28;-23572.69;;;12.81;100.00
29385;BME280;16367;48.736;9.218;2023-10-19T07:34:31;-23585.97;;;13.23;100.00
29385;BME280;16367;48.736;9.218;2023-10-19T07:36:35;-23589.13;;;13.33;100.00
29385;BME280;16367;48.736;9.218;2023-10-19T07:38:38;-23583.28;;;13.14;100.00
29385;BME280;16367;48.736;9.218;2023-10-19T07:40:42;-23588.63;;;13.31;100.00
29385;BME280;16367;48.736;9.218;2023-10-19T07:42:46;-23589.13;;;13.33;100.00
29385;BME280;16367;48.736;9.218;2023-10-19T07:44:48;-23582.78;;;13.13;100.00
29385;BME280;16367;48.736;9.218;2023-10-19T07:46:51;-23590.84;;;13.38;100.00
29385;BME280;16367;48.736;9.218;2023-10-19T07:48:55;-23604.44;;;13.82;100.00
29385;BME280;16367;48.736;9.218;2023-10-19T07:50:59;-23609.50;;;13.98;100.00
29385;BME280;16367;48.736;9.218;2023-10-19T07:53:02;-23607.44;;;13.91;100.00
29385;BME280;16367;48.736;9.218;2023-10-19T07:55:06;-23610.59;;;14.01;100.00
29385;BME280;16367;48.736;9.218;2023-10-19T07:57:09;-23613.75;;;14.11;100.00
29385;BME280;16367;48.736;9.218;2023-10-19T07:59:14;-23604.59;;;13.82;100.00
29385;BME280;16367;48.736;9.218;2023-10-19T08:01:17;-23615.66;;;14.17;100.00
29385;BME280;16367;48.736;9.218;2023-10-19T08:03:20;-23620.56;;;14.33;100.00
29385;BME280;16367;48.736;9.218;2023-10-19T08:05:23;-23613.44;;;14.10;100.00
29385;BME280;16367;48.736;9.218;2023-10-19T08:07:25;-23607.44;;;13.91;100.00
29385;BME280;16367;48.736;9.218;2023-10-19T08:09:29;-23606.50;;;13.88;100.00
29385;BME280;16367;48.736;9.218;2023-10-19T08:11:37;-23610.13;;;14.00;100.00
29385;BME280;16367;48.736;9.218;2023-10-19T08:13:41;-23606.34;;;13.88;100.00
29385;BME280;16367;48.736;9.218;2023-10-19T08:15:43;-23621.19;;;14.35;100.00
29385;BME280;16367;48.736;9.218;2023-10-19T08:17:48;-23614.88;;;14.15;100.00
29385;BME280;16367;48.736;9.218;2023-10-19T08:19:51;-23617.53;;;14.23;100.00
29385;BME280;16367;48.736;9.218;2023-10-19T08:21:54;-23626.06;;;14.51;100.00
29385;BME280;16367;48.736;9.218;2023-10-19T08:23:57;-23630.34;;;14.64;100.00
29385;BME280;16367;48.736;9.218;2023-10-19T08:26:03;-23635.53;;;14.81;100.00
29385;BME280;16367;48.736;9.218;2023-10-19T08:28:07;-23628.28;;;14.58;100.00
29385;BME280;16367;48.736;9.218;2023-10-19T08:30:11;-23651.63;;;15.32;100.00
29385;BME280;16367;48.736;9.218;2023-10-19T08:32:15;-23651.94;;;15.33;100.00
29385;BME280;16367;48.736;9.218;2023-10-19T08:34:18;-23643.75;;;15.07;100.00
29385;BME280;16367;48.736;9.218;2023-10-19T08:36:22;-23666.47;;;15.80;100.00
29385;BME280;16367;48.736;9.218;2023-10-19T08:38:24;-23645.78;;;15.14;100.00
29385;BME280;16367;48.736;9.218;2023-10-19T08:40:27;-23652.91;;;15.36;100.00
29385;BME280;16367;48.736;9.218;2023-10-19T08:42:30;-23669.78;;;15.90;100.00
29385;BME280;16367;48.736;9.218;2023-10-19T08:44:36;-23679.06;;;16.20;100.00
29385;BME280;16367;48.736;9.218;2023-10-19T08:46:42;-23689.16;;;16.52;100.00
29385;BME280;16367;48.736;9.218;2023-10-19T08:48:46;-23706.31;;;17.07;100.00
29385;BME280;16367;48.736;9.218;2023-10-19T08:50:48;-23686.94;;;16.45;100.00
29385;BME280;16367;48.736;9.218;2023-10-19T08:52:53;-23703.16;;;16.97;100.00
29385;BME280;16367;48.736;9.218;2023-10-19T08:54:56;-23703.63;;;16.98;100.00
29385;BME280;16367;48.736;9.218;2023-10-19T08:56:59;-23702.69;;;16.95;100.00
29385;BME280;16367;48.736;9.218;2023-10-19T08:59:02;-23720.34;;;17.52;100.00
29385;BME280;16367;48.736;9.218;2023-10-19T09:01:05;-23719.69;;;17.50;100.00
29385;BME280;16367;48.736;9.218;2023-10-19T09:03:13;-23700.50;;;16.88;100.00
29385;BME280;16367;48.736;9.218;2023-10-19T09:05:19;-23711.19;;;17.23;100.00
29385;BME280;16367;48.736;9.218;2023-10-19T09:07:23;-23702.69;;;16.95;100.00
29385;BME280;16367;48.736;9.218;2023-10-19T09:09:28;-23722.84;;;17.60;100.00
29385;BME280;16367;48.736;9.218;2023-10-19T09:11:34;-23738.41;;;18.10;100.00
29385;BME280;16367;48.736;9.218;2023-10-19T09:13:44;-23746.59;;;18.36;98.94
29385;BME280;16367;48.736;9.218;2023-10-19T09:15:49;-23743.91;;;18.27;100.00
29385;BME280;16367;48.736;9.218;2023-10-19T09:17:55;-23729.13;;;17.80;100.00
29385;BME280;16367;48.736;9.218;2023-10-19T09:19:59;-23707.56;;;17.11;100.00
29385;BME280;16367;48.736;9.218;2023-10-19T09:22:11;-23719.88;;;17.50;100.00
29385;BME280;16367;48.736;9.218;2023-10-19T09:24:24;-23739.53;;;18.13;100.00
29385;BME280;16367;48.736;9.218;2023-10-19T09:26:26;-23689.78;;;16.54;100.00
29385;BME280;16367;48.736;9.218;2023-10-19T09:28:30;-23686.00;;;16.42;100.00
29385;BME280;16367;48.736;9.218;2023-10-19T09:30:36;-23695.94;;;16.74;100.00
29385;BME280;16367;48.736;9.218;2023-10-19T09:32:40;-23689.63;;;16.54;100.00
29385;BME280;16367;48.736;9.218;2023-10-19T09:34:44;-23685.06;;;16.39;100.00
29385;BME280;16367;48.736;9.218;2023-10-19T09:36:51;-23685.38;;;16.40;100.00
29385;BME280;16367;48.736;9.218;2023-10-19T09:38:54;-23695.16;;;16.71;100.00
29385;BME280;16367;48.736;9.218;2023-10-19T09:40:59;-23708.22;;;17.13;100.00
29385;BME280;16367;48.736;9.218;2023-10-19T09:43:05;-23718.44;;;17.46;100.00
29385;BME280;16367;48.736;9.218;2023-10-19T09:45:18;-23734.03;;;17.96;100.00
29385;BME280;16367;48.736;9.218;2023-10-19T09:47:26;-23726.47;;;17.71;100.00
29385;BME280;16367;48.736;9.218;2023-10-19T09:49:32;-23726.94;;;17.73;100.00
29385;BME280;16367;48.736;9.218;2023-10-19T09:51:35;-23749.59;;;18.45;100.00
29385;BME280;16367;48.736;9.218;2023-10-19T09:53:39;-23746.28;;;18.35;100.00
29385;BME280;16367;48.736;9.218;2023-10-19T09:55:44;-23728.34;;;17.77;100.00
29385;BME280;16367;48.736;9.218;2023-10-19T09:57:51;-23729.31;;;17.80;100.00
29385;BME280;16367;48.736;9.218;2023-10-19T10:00:00;-23718.75;;;17.47;100.00
29385;BME280;16367;48.736;9.218;2023-10-19T10:02:11;-23707.09;;;17.09;100.00
29385;BME280;16367;48.736;9.218;2023-10-19T10:04:30;-23706.31;;;17.07;100.00
29385;BME280;16367;48.736;9.218;2023-10-19T10:06:57;-23685.38;;;16.40;100.00
29385;BME280;16367;48.736;9.218;2023-10-19T10:09:03;-23680.66;;;16.25;100.00
29385;BME280;16367;48.736;9.218;2023-10-19T10:11:19;-23684.75;;;16.38;100.00
29385;BME280;16367;48.736;9.218;2023-10-19T10:13:45;-23678.75;;;16.19;100.00
29385;BME280;16367;48.736;9.218;2023-10-19T10:15:53;-23689.47;;;16.53;100.00
29385;BME280;16367;48.736;9.218;2023-10-19T10:17:57;-23690.41;;;16.56;100.00
29385;BME280;16367;48.736;9.218;2023-10-19T10:20:33;-23692.00;;;16.61;100.00
29385;BME280;16367;48.736;9.218;2023-10-19T10:22:36;-23675.75;;;16.09;100.00
29385;BME280;16367;48.736;9.218;2023-10-19T10:24:41;-23678.75;;;16.19;100.00
29385;BME280;16367;48.736;9.218;2023-10-19T10:26:59;-23675.44;;;16.08;100.00
29385;BME280;16367;48.736;9.218;2023-10-19T10:29:10;-23672.91;;;16.00;100.00
29385;BME280;16367;48.736;9.218;2023-10-19T10:31:19;-23681.59;;;16.28;100.00
29385;BME280;16367;48.736;9.218;2023-10-19T10:33:39;-23686.94;;;16.45;100.00
29385;BME280;16367;48.736;9.218;2023-10-19T10:35:53;-23686.63;;;16.44;100.00
29385;BME280;16367;48.736;9.218;2023-10-19T10:37:56;-23681.91;;;16.29;100.00
29385;BME280;16367;48.736;9.218;2023-10-19T10:40:02;-23678.75;;;16.19;100.00
29385;BME280;16367;48.736;9.218;2023-10-19T10:42:08;-23672.13;;;15.98;100.00
29385;BME280;16367;48.736;9.218;2023-10-19T10:44:11;-23672.59;;;15.99;100.00
29385;BME280;16367;48.736;9.218;2023-10-19T10:46:14;-23674.81;;;16.06;100.00